sensor_id;sensor_type;location;lat;lon;timestamp;pressure;altitude;pressure_sealevel;temperature;humidity
74045;BME280;62389;51.412;5.436;2024-03-17T00:02:02;102215.06;;;5.49;100.00
74045;BME280;62389;51.412;5.436;2024-03-17T00:04:27;102219.38;;;5.48;100.00
74045;BME280;62389;51.412;5.436;2024-03-17T00:06:53;102210.72;;;5.51;100.00
74045;BME280;62389;51.412;5.436;2024-03-17T00:09:18;102215.06;;;5.53;100.00
74045;BME280;62389;51.412;5.436;2024-03-17T00:11:44;102209.84;;;5.56;100.00
74045;BME280;62389;51.412;5.436;2024-03-17T00:14:10;102206.41;;;5.57;100.00
74045;BME280;62389;51.412;5.436;2024-03-17T00:16:36;102204.66;;;5.59;100.00
74045;BME280;62389;51.412;5.436;2024-03-17T00:19:02;102204.66;;;5.62;100.00
74045;BME280;62389;51.412;5.436;2024-03-17T00:21:27;102194.28;;;5.62;100.00
74045;BME280;62389;51.412;5.436;2024-03-17T00:23:53;102197.75;;;5.63;100.00
74045;BME280;62389;51.412;5.436;2024-03-17T00:26:18;102202.03;;;5.65;100.00
74045;BME280;62389;51.412;5.436;2024-03-17T00:28:46;102197.75;;;5.63;100.00
74045;BME280;62389;51.412;5.436;2024-03-17T00:31:13;102195.16;;;5.63;100.00
74045;BME280;62389;51.412;5.436;2024-03-17T00:33:40;102188.22;;;5.63;100.00
74045;BME280;62389;51.412;5.436;2024-03-17T00:36:06;102196.88;;;5.64;100.00
74045;BME280;62389;51.412;5.436;2024-03-17T00:38:31;102192.53;;;5.64;100.00
74045;BME280;62389;51.412;5.436;2024-03-17T00:40:57;102192.53;;;5.66;100.00
74045;BME280;62389;51.412;5.436;2024-03-17T00:43:22;102200.31;;;5.67;100.00
74045;BME280;62389;51.412;5.436;2024-03-17T00:45:51;102201.19;;;5.68;100.00
74045;BME280;62389;51.412;5.436;2024-03-17T00:48:17;102200.31;;;5.69;100.00
74045;BME280;62389;51.412;5.436;2024-03-17T00:50:42;102190.78;;;5.69;100.00
74045;BME280;62389;51.412;5.436;2024-03-17T00:53:10;102191.66;;;5.68;100.00
74045;BME280;62389;51.412;5.436;2024-03-17T00:55:35;102184.72;;;5.66;100.00
74045;BME280;62389;51.412;5.436;2024-03-17T00:58:00;102185.59;;;5.65;100.00
74045;BME280;62389;51.412;5.436;2024-03-17T01:00:26;102192.53;;;5.64;100.00
74045;BME280;62389;51.412;5.436;2024-03-17T01:02:51;102181.28;;;5.61;100.00
74045;BME280;62389;51.412;5.436;2024-03-17T01:05:17;102184.75;;;5.60;100.00
74045;BME280;62389;51.412;5.436;2024-03-17T01:07:42;102178.69;;;5.59;100.00
74045;BME280;62389;51.412;5.436;2024-03-17T01:10:08;102176.97;;;5.60;100.00
74045;BME280;62389;51.412;5.436;2024-03-17T01:12:34;102176.97;;;5.60;100.00
74045;BME280;62389;51.412;5.436;2024-03-17T01:15:02;102171.75;;;5.61;100.00
74045;BME280;62389;51.412;5.436;2024-03-17T01:17:27;102170.03;;;5.60;100.00
74045;BME280;62389;51.412;5.436;2024-03-17T01:19:54;102170.94;;;5.58;100.00
74045;BME280;62389;51.412;5.436;2024-03-17T01:22:19;102163.13;;;5.56;100.00
74045;BME280;62389;51.412;5.436;2024-03-17T01:24:45;102160.53;;;5.56;100.00
74045;BME280;62389;51.412;5.436;2024-03-17T01:27:11;102157.09;;;5.53;100.00
74045;BME280;62389;51.412;5.436;2024-03-17T01:29:39;102152.78;;;5.49;100.00
74045;BME280;62389;51.412;5.436;2024-03-17T01:32:05;102157.09;;;5.45;100.00
74045;BME280;62389;51.412;5.436;2024-03-17T01:34:31;102150.19;;;5.42;100.00
74045;BME280;62389;51.412;5.436;2024-03-17T01:36:56;102143.25;;;5.40;100.00
74045;BME280;62389;51.412;5.436;2024-03-17T01:39:22;102144.13;;;5.39;100.00
74045;BME280;62389;51.412;5.436;2024-03-17T01:41:47;102131.16;;;5.36;100.00
74045;BME280;62389;51.412;5.436;2024-03-17T01:44:27;102137.22;;;5.35;100.00
74045;BME280;62389;51.412;5.436;2024-03-17T01:46:53;102133.78;;;5.33;100.00
74045;BME280;62389;51.412;5.436;2024-03-17T01:49:20;102133.75;;;5.30;100.00
74045;BME280;62389;51.412;5.436;2024-03-17T01:51:46;102137.25;;;5.27;100.00
74045;BME280;62389;51.412;5.436;2024-03-17T01:54:13;102137.25;;;5.23;100.00
74045;BME280;62389;51.412;5.436;2024-03-17T01:56:39;102139.81;;;5.21;100.00
74045;BME280;62389;51.412;5.436;2024-03-17T01:59:05;102128.56;;;5.20;100.00
74045;BME280;62389;51.412;5.436;2024-03-17T02:01:31;102133.78;;;5.22;100.00
74045;BME280;62389;51.412;5.436;2024-03-17T02:03:57;102133.78;;;5.24;100.00
74045;BME280;62389;51.412;5.436;2024-03-17T02:06:23;102126.84;;;5.30;100.00
74045;BME280;62389;51.412;5.436;2024-03-17T02:08:50;102124.25;;;5.35;100.00
74045;BME280;62389;51.412;5.436;2024-03-17T02:11:29;102128.53;;;5.42;100.00
74045;BME280;62389;51.412;5.436;2024-03-17T02:13:55;102131.13;;;5.46;100.00
74045;BME280;62389;51.412;5.436;2024-03-17T02:16:22;102128.53;;;5.51;100.00
74045;BME280;62389;51.412;5.436;2024-03-17T02:18:47;102122.47;;;5.54;100.00
74045;BME280;62389;51.412;5.436;2024-03-17T02:21:13;102120.72;;;5.56;100.00
74045;BME280;62389;51.412;5.436;2024-03-17T02:23:40;102125.06;;;5.58;100.00
74045;BME280;62389;51.412;5.436;2024-03-17T02:26:05;102121.59;;;5.62;100.00
74045;BME280;62389;51.412;5.436;2024-03-17T02:28:38;102110.34;;;5.65;100.00
74045;BME280;62389;51.412;5.436;2024-03-17T02:31:04;102115.50;;;5.69;100.00
74045;BME280;62389;51.412;5.436;2024-03-17T02:33:30;102113.78;;;5.68;100.00
74045;BME280;62389;51.412;5.436;2024-03-17T02:35:55;102105.13;;;5.69;100.00
74045;BME280;62389;51.412;5.436;2024-03-17T02:38:20;102101.66;;;5.70;100.00
74045;BME280;62389;51.412;5.436;2024-03-17T02:41:06;102099.06;;;5.74;100.00
74045;BME280;62389;51.412;5.436;2024-03-17T02:43:31;102097.31;;;5.76;100.00
74045;BME280;62389;51.412;5.436;2024-03-17T02:45:56;102094.72;;;5.76;100.00
74045;BME280;62389;51.412;5.436;2024-03-17T02:48:22;102092.13;;;5.76;100.00
74045;BME280;62389;51.412;5.436;2024-03-17T02:50:48;102099.03;;;5.77;100.00
74045;BME280;62389;51.412;5.436;2024-03-17T02:53:13;102093.84;;;5.77;100.00
74045;BME280;62389;51.412;5.436;2024-03-17T02:55:39;102097.31;;;5.76;100.00
74045;BME280;62389;51.412;5.436;2024-03-17T02:58:04;102097.31;;;5.79;100.00
74045;BME280;62389;51.412;5.436;2024-03-17T03:00:30;102104.22;;;5.83;100.00
74045;BME280;62389;51.412;5.436;2024-03-17T03:02:55;102094.69;;;5.85;100.00
74045;BME280;62389;51.412;5.436;2024-03-17T03:05:20;102092.09;;;5.88;100.00
74045;BME280;62389;51.412;5.436;2024-03-17T03:07:45;102092.06;;;5.91;100.00
74045;BME280;62389;51.412;5.436;2024-03-17T03:10:11;102100.75;;;5.93;100.00
74045;BME280;62389;51.412;5.436;2024-03-17T03:12:36;102092.06;;;5.97;100.00
74045;BME280;62389;51.412;5.436;2024-03-17T03:15:01;102096.41;;;5.98;100.00
74045;BME280;62389;51.412;5.436;2024-03-17T03:17:28;102091.19;;;6.00;100.00
74045;BME280;62389;51.412;5.436;2024-03-17T03:19:53;102093.78;;;6.01;100.00
74045;BME280;62389;51.412;5.436;2024-03-17T03:22:20;102095.50;;;6.01;100.00
74045;BME280;62389;51.412;5.436;2024-03-17T03:24:46;102094.66;;;6.00;100.00
74045;BME280;62389;51.412;5.436;2024-03-17T03:27:12;102090.31;;;6.01;100.00
74045;BME280;62389;51.412;5.436;2024-03-17T03:29:38;102077.31;;;6.02;100.00
74045;BME280;62389;51.412;5.436;2024-03-17T03:32:04;102083.41;;;6.03;100.00
74045;BME280;62389;51.412;5.436;2024-03-17T03:34:29;102077.31;;;6.04;100.00
74045;BME280;62389;51.412;5.436;2024-03-17T03:36:54;102079.91;;;6.05;100.00
74045;BME280;62389;51.412;5.436;2024-03-17T03:39:21;102076.47;;;6.03;100.00
74045;BME280;62389;51.412;5.436;2024-03-17T03:41:46;102072.13;;;6.02;100.00
74045;BME280;62389;51.412;5.436;2024-03-17T03:44:12;102071.28;;;6.03;100.00
74045;BME280;62389;51.412;5.436;2024-03-17T03:46:38;102073.00;;;6.04;100.00
74045;BME280;62389;51.412;5.436;2024-03-17T03:49:03;102071.25;;;6.06;100.00
74045;BME280;62389;51.412;5.436;2024-03-17T03:51:29;102066.91;;;6.05;100.00
74045;BME280;62389;51.412;5.436;2024-03-17T03:53:54;102060.88;;;6.05;100.00
74045;BME280;62389;51.412;5.436;2024-03-17T03:56:20;102050.50;;;6.03;100.00
74045;BME280;62389;51.412;5.436;2024-03-17T03:58:46;102042.69;;;6.02;100.00
74045;BME280;62389;51.412;5.436;2024-03-17T04:01:11;102047.06;;;5.98;100.00
74045;BME280;62389;51.412;5.436;2024-03-17T04:03:37;102060.94;;;5.94;100.00
74045;BME280;62389;51.412;5.436;2024-03-17T04:08:29;102029.78;;;5.88;100.00
74045;BME280;62389;51.412;5.436;2024-03-17T04:10:55;102036.69;;;5.87;100.00
74045;BME280;62389;51.412;5.436;2024-03-17T04:13:20;102033.25;;;5.84;100.00
74045;BME280;62389;51.412;5.436;2024-03-17T04:15:45;102034.97;;;5.82;100.00
74045;BME280;62389;51.412;5.436;2024-03-17T04:18:10;102036.72;;;5.77;100.00
74045;BME280;62389;51.412;5.436;2024-03-17T04:20:36;102025.50;;;5.73;100.00
74045;BME280;62389;51.412;5.436;2024-03-17T04:23:02;102028.13;;;5.73;100.00
74045;BME280;62389;51.412;5.436;2024-03-17T04:25:28;102027.25;;;5.72;100.00
74045;BME280;62389;51.412;5.436;2024-03-17T04:27:54;102021.16;;;5.72;100.00
74045;BME280;62389;51.412;5.436;2024-03-17T04:30:19;102022.91;;;5.71;100.00
74045;BME280;62389;51.412;5.436;2024-03-17T04:32:44;102022.06;;;5.69;100.00
74045;BME280;62389;51.412;5.436;2024-03-17T04:35:10;102018.59;;;5.70;100.00
74045;BME280;62389;51.412;5.436;2024-03-17T04:37:36;102015.16;;;5.68;100.00
74045;BME280;62389;51.412;5.436;2024-03-17T04:40:04;102015.16;;;5.65;100.00
74045;BME280;62389;51.412;5.436;2024-03-17T04:42:34;102022.97;;;5.64;100.00
74045;BME280;62389;51.412;5.436;2024-03-17T04:45:00;102017.78;;;5.62;100.00
74045;BME280;62389;51.412;5.436;2024-03-17T04:47:25;102017.75;;;5.61;100.00
74045;BME280;62389;51.412;5.436;2024-03-17T04:49:51;102019.50;;;5.60;100.00
74045;BME280;62389;51.412;5.436;2024-03-17T04:52:16;102016.06;;;5.58;100.00
74045;BME280;62389;51.412;5.436;2024-03-17T04:54:42;102010.84;;;5.57;100.00
74045;BME280;62389;51.412;5.436;2024-03-17T04:57:08;102009.16;;;5.54;100.00
74045;BME280;62389;51.412;5.436;2024-03-17T04:59:34;102018.69;;;5.51;100.00
74045;BME280;62389;51.412;5.436;2024-03-17T05:02:00;102023.91;;;5.48;100.00
74045;BME280;62389;51.412;5.436;2024-03-17T05:04:26;102016.97;;;5.45;100.00
74045;BME280;62389;51.412;5.436;2024-03-17T05:06:51;102023.06;;;5.42;100.00
74045;BME280;62389;51.412;5.436;2024-03-17T05:09:17;102019.56;;;5.40;100.00
74045;BME280;62389;51.412;5.436;2024-03-17T05:11:42;102021.28;;;5.41;100.00
74045;BME280;62389;51.412;5.436;2024-03-17T05:14:08;102013.50;;;5.41;100.00
74045;BME280;62389;51.412;5.436;2024-03-17T05:16:34;102008.31;;;5.41;100.00
74045;BME280;62389;51.412;5.436;2024-03-17T05:19:00;102014.38;;;5.42;100.00
74045;BME280;62389;51.412;5.436;2024-03-17T05:21:25;102016.13;;;5.40;100.00
74045;BME280;62389;51.412;5.436;2024-03-17T05:23:51;102008.34;;;5.38;100.00
74045;BME280;62389;51.412;5.436;2024-03-17T05:26:17;102004.91;;;5.38;100.00
74045;BME280;62389;51.412;5.436;2024-03-17T05:28:43;102004.03;;;5.36;100.00
74045;BME280;62389;51.412;5.436;2024-03-17T05:31:09;102000.59;;;5.31;100.00
74045;BME280;62389;51.412;5.436;2024-03-17T05:33:34;102002.34;;;5.24;100.00
74045;BME280;62389;51.412;5.436;2024-03-17T05:36:02;102008.41;;;5.17;100.00
74045;BME280;62389;51.412;5.436;2024-03-17T05:38:29;102010.13;;;5.12;100.00
74045;BME280;62389;51.412;5.436;2024-03-17T05:40:58;101998.03;;;5.11;100.00
74045;BME280;62389;51.412;5.436;2024-03-17T05:43:31;101996.31;;;5.11;100.00
74045;BME280;62389;51.412;5.436;2024-03-17T05:45:59;101998.91;;;5.10;100.00
74045;BME280;62389;51.412;5.436;2024-03-17T05:48:26;101983.34;;;5.07;100.00
74045;BME280;62389;51.412;5.436;2024-03-17T05:50:51;101991.13;;;5.07;100.00
74045;BME280;62389;51.412;5.436;2024-03-17T05:53:17;101991.13;;;5.07;100.00
74045;BME280;62389;51.412;5.436;2024-03-17T05:55:46;101991.16;;;5.05;100.00
74045;BME280;62389;51.412;5.436;2024-03-17T05:58:11;101999.78;;;5.06;100.00
74045;BME280;62389;51.412;5.436;2024-03-17T06:00:38;102005.00;;;5.04;100.00
74045;BME280;62389;51.412;5.436;2024-03-17T06:03:05;101993.75;;;5.05;100.00
74045;BME280;62389;51.412;5.436;2024-03-17T06:05:37;102002.38;;;5.06;100.00
74045;BME280;62389;51.412;5.436;2024-03-17T06:08:03;102005.84;;;5.05;100.00
74045;BME280;62389;51.412;5.436;2024-03-17T06:10:30;102011.03;;;5.06;100.00
74045;BME280;62389;51.412;5.436;2024-03-17T06:12:56;102018.78;;;5.11;100.00
74045;BME280;62389;51.412;5.436;2024-03-17T06:15:23;102017.94;;;5.13;100.00
74045;BME280;62389;51.412;5.436;2024-03-17T06:17:49;102023.09;;;5.16;100.00
74045;BME280;62389;51.412;5.436;2024-03-17T06:20:15;102020.50;;;5.16;100.00
74045;BME280;62389;51.412;5.436;2024-03-17T06:22:41;102014.44;;;5.20;100.00
74045;BME280;62389;51.412;5.436;2024-03-17T06:25:06;102015.31;;;5.24;100.00
74045;BME280;62389;51.412;5.436;2024-03-17T06:27:32;102023.94;;;5.26;100.00
74045;BME280;62389;51.412;5.436;2024-03-17T06:30:01;102017.03;;;5.28;100.00
74045;BME280;62389;51.412;5.436;2024-03-17T06:32:35;102019.63;;;5.33;100.00
74045;BME280;62389;51.412;5.436;2024-03-17T06:35:04;102019.59;;;5.39;100.00
74045;BME280;62389;51.412;5.436;2024-03-17T06:37:29;102015.25;;;5.44;100.00
74045;BME280;62389;51.412;5.436;2024-03-17T06:39:54;102016.06;;;5.51;100.00
74045;BME280;62389;51.412;5.436;2024-03-17T06:42:20;102013.44;;;5.61;100.00
74045;BME280;62389;51.412;5.436;2024-03-17T06:44:45;102018.59;;;5.69;100.00
74045;BME280;62389;51.412;5.436;2024-03-17T06:47:11;102020.28;;;5.79;100.00
74045;BME280;62389;51.412;5.436;2024-03-17T06:49:36;102015.91;;;5.86;100.00
74045;BME280;62389;51.412;5.436;2024-03-17T06:52:02;102015.03;;;5.91;100.00
74045;BME280;62389;51.412;5.436;2024-03-17T06:54:27;102033.19;;;5.99;100.00
74045;BME280;62389;51.412;5.436;2024-03-17T06:56:53;102027.06;;;6.11;100.00
74045;BME280;62389;51.412;5.436;2024-03-17T06:59:18;102020.94;;;6.22;100.00
74045;BME280;62389;51.412;5.436;2024-03-17T07:01:45;102033.88;;;6.29;100.00
74045;BME280;62389;51.412;5.436;2024-03-17T07:04:12;102026.91;;;6.32;100.00
74045;BME280;62389;51.412;5.436;2024-03-17T07:06:37;102017.38;;;6.36;100.00
74045;BME280;62389;51.412;5.436;2024-03-17T07:09:02;102013.00;;;6.39;100.00
74045;BME280;62389;51.412;5.436;2024-03-17T07:11:28;102009.44;;;6.51;100.00
74045;BME280;62389;51.412;5.436;2024-03-17T07:13:54;101999.81;;;6.62;100.00
74045;BME280;62389;51.412;5.436;2024-03-17T07:16:19;101995.41;;;6.73;100.00
74045;BME280;62389;51.412;5.436;2024-03-17T07:18:47;101994.44;;;6.84;100.00
74045;BME280;62389;51.412;5.436;2024-03-17T07:21:12;101995.25;;;6.89;100.00
74045;BME280;62389;51.412;5.436;2024-03-17T07:23:38;101996.94;;;6.91;100.00
74045;BME280;62389;51.412;5.436;2024-03-17T07:26:04;101995.16;;;6.98;100.00
74045;BME280;62389;51.412;5.436;2024-03-17T07:28:30;101994.13;;;7.11;100.00
74045;BME280;62389;51.412;5.436;2024-03-17T07:30:57;101995.66;;;7.31;100.00
74045;BME280;62389;51.412;5.436;2024-03-17T07:33:24;101995.38;;;7.55;100.00
74045;BME280;62389;51.412;5.436;2024-03-17T07:35:53;101983.50;;;7.97;100.00
74045;BME280;62389;51.412;5.436;2024-03-17T07:38:20;101990.72;;;8.39;100.00
74045;BME280;62389;51.412;5.436;2024-03-17T07:43:25;101980.47;;;8.77;100.00
74045;BME280;62389;51.412;5.436;2024-03-17T07:46:03;101983.94;;;8.78;100.00
74045;BME280;62389;51.412;5.436;2024-03-17T07:48:33;101989.25;;;8.73;100.00
74045;BME280;62389;51.412;5.436;2024-03-17T07:51:04;101988.53;;;8.65;100.00
74045;BME280;62389;51.412;5.436;2024-03-17T07:53:33;101992.28;;;8.49;100.00
74045;BME280;62389;51.412;5.436;2024-03-17T07:56:03;101994.22;;;8.35;100.00
74045;BME280;62389;51.412;5.436;2024-03-17T07:58:29;101993.44;;;8.29;100.00
74045;BME280;62389;51.412;5.436;2024-03-17T08:01:02;101986.44;;;8.31;100.00
74045;BME280;62389;51.412;5.436;2024-03-17T08:03:29;101976.00;;;8.31;100.00
74045;BME280;62389;51.412;5.436;2024-03-17T08:05:55;101970.84;;;8.30;100.00
74045;BME280;62389;51.412;5.436;2024-03-17T08:08:20;101967.38;;;8.29;100.00
74045;BME280;62389;51.412;5.436;2024-03-17T08:10:46;101974.31;;;8.30;100.00
74045;BME280;62389;51.412;5.436;2024-03-17T08:13:19;101971.66;;;8.32;100.00
74045;BME280;62389;51.412;5.436;2024-03-17T08:15:46;101972.53;;;8.34;100.00
74045;BME280;62389;51.412;5.436;2024-03-17T08:18:12;101979.38;;;8.41;100.00
74045;BME280;62389;51.412;5.436;2024-03-17T08:20:38;101981.09;;;8.44;100.00
74045;BME280;62389;51.412;5.436;2024-03-17T08:23:05;101980.19;;;8.45;100.00
74045;BME280;62389;51.412;5.436;2024-03-17T08:25:31;101994.06;;;8.47;100.00
74045;BME280;62389;51.412;5.436;2024-03-17T08:27:56;101987.94;;;8.48;100.00
74045;BME280;62389;51.412;5.436;2024-03-17T08:30:22;101981.94;;;8.44;100.00
74045;BME280;62389;51.412;5.436;2024-03-17T08:32:47;101981.16;;;8.38;100.00
74045;BME280;62389;51.412;5.436;2024-03-17T08:35:12;101977.72;;;8.32;100.00
74045;BME280;62389;51.412;5.436;2024-03-17T08:37:38;101980.41;;;8.29;100.00
74045;BME280;62389;51.412;5.436;2024-03-17T08:40:04;101979.56;;;8.29;100.00
74045;BME280;62389;51.412;5.436;2024-03-17T08:42:32;101976.91;;;8.30;100.00
74045;BME280;62389;51.412;5.436;2024-03-17T08:44:57;101976.09;;;8.28;100.00
74045;BME280;62389;51.412;5.436;2024-03-17T08:47:22;101981.31;;;8.28;100.00
74045;BME280;62389;51.412;5.436;2024-03-17T08:49:50;101985.63;;;8.29;100.00
74045;BME280;62389;51.412;5.436;2024-03-17T08:52:16;101982.94;;;8.34;100.00
74045;BME280;62389;51.412;5.436;2024-03-17T08:54:45;101985.50;;;8.39;100.00
74045;BME280;62389;51.412;5.436;2024-03-17T08:57:11;101986.25;;;8.45;100.00
74045;BME280;62389;51.412;5.436;2024-03-17T08:59:36;101982.66;;;8.52;100.00
74045;BME280;62389;51.412;5.436;2024-03-17T09:02:02;101972.16;;;8.59;100.00
74045;BME280;62389;51.412;5.436;2024-03-17T09:04:28;101968.56;;;8.63;100.00
74045;BME280;62389;51.412;5.436;2024-03-17T09:06:54;101968.50;;;8.69;100.00
74045;BME280;62389;51.412;5.436;2024-03-17T09:09:21;101965.75;;;8.73;100.00
74045;BME280;62389;51.412;5.436;2024-03-17T09:11:47;101970.97;;;8.75;100.00
74045;BME280;62389;51.412;5.436;2024-03-17T09:14:12;101971.75;;;8.80;100.00
74045;BME280;62389;51.412;5.436;2024-03-17T09:16:37;101971.59;;;8.89;100.00
74045;BME280;62389;51.412;5.436;2024-03-17T09:19:03;101966.13;;;9.01;100.00
74045;BME280;62389;51.412;5.436;2024-03-17T09:21:28;101968.41;;;9.18;100.00
74045;BME280;62389;51.412;5.436;2024-03-17T09:23:53;101965.41;;;9.37;100.00
74045;BME280;62389;51.412;5.436;2024-03-17T09:26:19;101964.91;;;9.61;100.00
74045;BME280;62389;51.412;5.436;2024-03-17T09:28:44;101969.44;;;9.92;100.00
74045;BME280;62389;51.412;5.436;2024-03-17T09:31:10;101963.13;;;10.02;100.00
74045;BME280;62389;51.412;5.436;2024-03-17T09:33:36;101966.63;;;10.01;100.00
74045;BME280;62389;51.412;5.436;2024-03-17T09:36:05;101959.34;;;10.13;99.84
74045;BME280;62389;51.412;5.436;2024-03-17T09:38:35;101963.72;;;10.50;98.78
74045;BME280;62389;51.412;5.436;2024-03-17T09:41:00;101952.09;;;10.95;99.04
74045;BME280;62389;51.412;5.436;2024-03-17T09:43:32;101952.69;;;11.34;96.22
74045;BME280;62389;51.412;5.436;2024-03-17T09:45:58;101955.38;;;11.62;94.82
74045;BME280;62389;51.412;5.436;2024-03-17T09:48:25;101951.25;;;11.83;93.72
74045;BME280;62389;51.412;5.436;2024-03-17T09:50:53;101947.03;;;11.77;91.91
74045;BME280;62389;51.412;5.436;2024-03-17T09:53:23;101949.00;;;11.69;93.44
74045;BME280;62389;51.412;5.436;2024-03-17T09:55:49;101954.97;;;11.74;92.32
74045;BME280;62389;51.412;5.436;2024-03-17T09:58:16;101950.63;;;11.75;92.38
74045;BME280;62389;51.412;5.436;2024-03-17T10:00:44;101951.50;;;11.74;93.67
74045;BME280;62389;51.412;5.436;2024-03-17T10:03:10;101946.50;;;11.66;90.62
74045;BME280;62389;51.412;5.436;2024-03-17T10:05:35;101953.94;;;11.52;92.33
74045;BME280;62389;51.412;5.436;2024-03-17T10:08:01;101957.91;;;11.35;92.94
74045;BME280;62389;51.412;5.436;2024-03-17T10:10:27;101953.84;;;11.25;94.56
74045;BME280;62389;51.412;5.436;2024-03-17T10:12:52;101955.59;;;11.25;94.66
74045;BME280;62389;51.412;5.436;2024-03-17T10:15:19;101953.00;;;11.23;96.03
74045;BME280;62389;51.412;5.436;2024-03-17T10:17:45;101951.28;;;11.22;94.79
74045;BME280;62389;51.412;5.436;2024-03-17T10:20:11;101941.72;;;11.21;96.50
74045;BME280;62389;51.412;5.436;2024-03-17T10:22:38;101935.66;;;11.19;96.12
74045;BME280;62389;51.412;5.436;2024-03-17T10:25:03;101939.16;;;11.20;96.40
74045;BME280;62389;51.412;5.436;2024-03-17T10:27:29;101931.31;;;11.20;96.06
74045;BME280;62389;51.412;5.436;2024-03-17T10:29:54;101933.03;;;11.19;95.52
74045;BME280;62389;51.412;5.436;2024-03-17T10:32:21;101929.56;;;11.19;95.77
74045;BME280;62389;51.412;5.436;2024-03-17T10:34:49;101928.53;;;11.24;97.04
74045;BME280;62389;51.412;5.436;2024-03-17T10:37:18;101930.06;;;11.31;97.16
74045;BME280;62389;51.412;5.436;2024-03-17T10:39:52;101935.78;;;11.44;96.51
74045;BME280;62389;51.412;5.436;2024-03-17T10:42:28;101926.72;;;11.56;96.54
74045;BME280;62389;51.412;5.436;2024-03-17T10:44:54;101923.66;;;11.70;97.32
74045;BME280;62389;51.412;5.436;2024-03-17T10:47:21;101917.13;;;11.84;99.18
74045;BME280;62389;51.412;5.436;2024-03-17T10:49:50;101920.88;;;12.04;94.81
74045;BME280;62389;51.412;5.436;2024-03-17T10:52:17;101922.03;;;12.22;97.63
74045;BME280;62389;51.412;5.436;2024-03-17T10:54:53;101923.28;;;12.36;94.20
74045;BME280;62389;51.412;5.436;2024-03-17T10:57:31;101930.88;;;12.46;94.48
74045;BME280;62389;51.412;5.436;2024-03-17T11:00:00;101921.00;;;12.52;92.38
74045;BME280;62389;51.412;5.436;2024-03-17T11:02:29;101917.38;;;12.56;91.93
74045;BME280;62389;51.412;5.436;2024-03-17T11:05:00;101915.47;;;12.60;92.19
74045;BME280;62389;51.412;5.436;2024-03-17T11:07:26;101915.47;;;12.60;91.64
74045;BME280;62389;51.412;5.436;2024-03-17T11:09:53;101917.22;;;12.61;91.31
74045;BME280;62389;51.412;5.436;2024-03-17T11:12:42;101921.63;;;12.59;92.99
74045;BME280;62389;51.412;5.436;2024-03-17T11:15:35;101921.63;;;12.59;92.42
74045;BME280;62389;51.412;5.436;2024-03-17T11:20:34;101917.41;;;12.55;91.81
74045;BME280;62389;51.412;5.436;2024-03-17T11:23:00;101921.84;;;12.53;91.38
74045;BME280;62389;51.412;5.436;2024-03-17T11:27:58;101916.66;;;12.51;91.09
74045;BME280;62389;51.412;5.436;2024-03-17T11:39:01;101912.59;;;12.42;92.38
74045;BME280;62389;51.412;5.436;2024-03-17T11:46:58;101903.25;;;12.34;93.53
74045;BME280;62389;51.412;5.436;2024-03-17T11:51:59;101893.84;;;12.28;93.28
74045;BME280;62389;51.412;5.436;2024-03-17T11:54:27;101897.38;;;12.27;93.58
74045;BME280;62389;51.412;5.436;2024-03-17T11:57:02;101894.84;;;12.24;94.07
74045;BME280;62389;51.412;5.436;2024-03-17T11:59:28;101887.94;;;12.22;93.33
74045;BME280;62389;51.412;5.436;2024-03-17T12:01:54;101888.84;;;12.21;93.47
74045;BME280;62389;51.412;5.436;2024-03-17T12:04:21;101887.09;;;12.21;94.64
74045;BME280;62389;51.412;5.436;2024-03-17T12:06:56;101873.06;;;12.22;95.91
74045;BME280;62389;51.412;5.436;2024-03-17T12:11:58;101859.09;;;12.22;94.86
74045;BME280;62389;51.412;5.436;2024-03-17T12:14:23;101856.47;;;12.22;94.35
74045;BME280;62389;51.412;5.436;2024-03-17T12:16:55;101864.28;;;12.23;95.92
74045;BME280;62389;51.412;5.436;2024-03-17T12:19:22;101865.97;;;12.24;95.42
74045;BME280;62389;51.412;5.436;2024-03-17T12:21:58;101856.31;;;12.26;95.28
74045;BME280;62389;51.412;5.436;2024-03-17T12:24:31;101862.34;;;12.28;95.12
74045;BME280;62389;51.412;5.436;2024-03-17T12:26:58;101850.84;;;12.32;96.78
74045;BME280;62389;51.412;5.436;2024-03-17T12:29:34;101843.78;;;12.34;95.64
74045;BME280;62389;51.412;5.436;2024-03-17T12:32:16;101851.53;;;12.37;95.43
74045;BME280;62389;51.412;5.436;2024-03-17T12:34:43;101847.06;;;12.41;95.74
74045;BME280;62389;51.412;5.436;2024-03-17T12:37:15;101836.41;;;12.46;97.48
74045;BME280;62389;51.412;5.436;2024-03-17T12:39:41;101833.78;;;12.46;94.82
74045;BME280;62389;51.412;5.436;2024-03-17T12:42:12;101833.66;;;12.49;95.20
74045;BME280;62389;51.412;5.436;2024-03-17T12:44:59;101834.41;;;12.52;96.44
74045;BME280;62389;51.412;5.436;2024-03-17T12:47:25;101832.56;;;12.54;96.22
74045;BME280;62389;51.412;5.436;2024-03-17T12:49:55;101832.53;;;12.56;94.79
74045;BME280;62389;51.412;5.436;2024-03-17T12:55:00;101825.44;;;12.58;94.50
74045;BME280;62389;51.412;5.436;2024-03-17T12:57:45;101828.84;;;12.60;94.42
74045;BME280;62389;51.412;5.436;2024-03-17T13:00:29;101825.38;;;12.59;94.43
74045;BME280;62389;51.412;5.436;2024-03-17T13:03:05;101826.31;;;12.58;94.04
74045;BME280;62389;51.412;5.436;2024-03-17T13:05:35;101819.28;;;12.59;95.15
74045;BME280;62389;51.412;5.436;2024-03-17T13:08:01;101806.97;;;12.61;94.79
74045;BME280;62389;51.412;5.436;2024-03-17T13:10:28;101805.75;;;12.69;96.30
74045;BME280;62389;51.412;5.436;2024-03-17T13:13:01;101801.78;;;12.83;95.18
74045;BME280;62389;51.412;5.436;2024-03-17T13:15:27;101801.97;;;13.00;94.95
74045;BME280;62389;51.412;5.436;2024-03-17T13:17:54;101802.25;;;13.16;94.92
74045;BME280;62389;51.412;5.436;2024-03-17T13:20:19;101803.56;;;13.28;92.34
74045;BME280;62389;51.412;5.436;2024-03-17T13:22:45;101802.47;;;13.33;92.45